Time;durP1;ratioP1;P1;durP2;ratioP2;P2;SDS_P1;SDS_P2;PMS_P1;PMS_P2;Temp;Humidity;BMP_temperature;BMP_pressure;BME280_temperature;BME280_humidity;BME280_pressure;Samples;Min_cycle;Max_cycle;Signal;HPM_P1;HPM_P2
2023/04/12 00:02:05;;;;;;;7.43;2.60;;;;;;;8.10;100.00;100494.44;5049017;28;20462;-59
2023/04/12 00:04:33;;;;;;;9.20;2.33;;;;;;;8.09;100.00;100484.81;5035155;28;20037;-60
2023/04/12 00:06:59;;;;;;;8.25;2.30;;;;;;;8.06;100.00;100473.59;5018966;28;20045;-57
2023/04/12 00:09:29;;;;;;;8.38;3.08;;;;;;;8.06;100.00;100473.59;5028115;28;20033;-56
2023/04/12 00:11:55;;;;;;;5.93;2.20;;;;;;;8.04;100.00;100468.41;5022313;28;20479;-57
2023/04/12 00:14:21;;;;;;;5.10;2.35;;;;;;;8.00;100.00;100458.19;5032639;28;20084;-57
2023/04/12 00:16:46;;;;;;;7.95;2.28;;;;;;;7.97;100.00;100451.31;5024444;28;20034;-58
2023/04/12 00:19:11;;;;;;;8.30;1.90;;;;;;;7.98;100.00;100455.66;5029062;28;20056;-57
2023/04/12 00:21:37;;;;;;;8.60;2.55;;;;;;;7.97;100.00;100451.31;5032081;28;20532;-58
2023/04/12 00:24:02;;;;;;;8.52;2.30;;;;;;;7.95;100.00;100437.38;5032929;28;20025;-59
2023/04/12 00:26:27;;;;;;;6.78;2.30;;;;;;;7.93;100.00;100418.97;5038633;28;20496;-59
2023/04/12 00:28:53;;;;;;;7.03;1.90;;;;;;;7.90;100.00;100411.25;5046618;28;20103;-59
2023/04/12 00:31:18;;;;;;;4.90;2.15;;;;;;;7.87;100.00;100406.16;5023315;28;20048;-58
2023/04/12 00:33:43;;;;;;;4.85;2.17;;;;;;;7.86;100.00;100393.06;5037645;28;20056;-56
2023/04/12 00:36:09;;;;;;;8.43;2.40;;;;;;;7.85;100.00;100392.22;5039289;28;20111;-57
2023/04/12 00:38:35;;;;;;;5.97;2.10;;;;;;;7.81;100.00;100388.13;5044874;28;20032;-58
2023/04/12 00:41:00;;;;;;;8.55;2.53;;;;;;;7.78;100.00;100372.47;5044062;28;20083;-59
2023/04/12 00:43:26;;;;;;;7.03;2.33;;;;;;;7.75;100.00;100367.41;5041696;28;20025;-58
2023/04/12 00:45:53;;;;;;;6.35;1.90;;;;;;;7.76;100.00;100366.44;5049756;28;20543;-57
2023/04/12 00:48:18;;;;;;;8.45;2.30;;;;;;;7.77;100.00;100365.50;5036975;28;20029;-59
2023/04/12 00:50:56;;;;;;;4.93;1.88;;;;;;;7.76;100.00;100361.16;5040304;28;20040;-58
2023/04/12 00:53:22;;;;;;;8.02;2.53;;;;;;;7.74;100.00;100349.84;5030659;28;20079;-56
2023/04/12 00:55:49;;;;;;;6.43;2.40;;;;;;;7.72;100.00;100330.63;5026629;28;20034;-58
2023/04/12 00:58:15;;;;;;;5.03;2.20;;;;;;;7.70;100.00;100328.09;5021716;28;20172;-57
2023/04/12 01:00:43;;;;;;;6.60;2.25;;;;;;;7.70;100.00;100316.69;5046826;28;20022;-57
2023/04/12 01:03:10;;;;;;;9.90;2.53;;;;;;;7.69;100.00;100304.41;5028236;28;20036;-59
2023/04/12 01:05:48;;;;;;;7.03;2.75;;;;;;;7.71;100.00;100302.50;5024607;28;20061;-58
2023/04/12 01:08:34;;;;;;;6.63;2.88;;;;;;;7.69;100.00;100296.47;5031849;28;20030;-57
2023/04/12 01:11:16;;;;;;;6.40;2.30;;;;;;;7.67;100.00;100287.81;5032032;28;20041;-58
2023/04/12 01:13:52;;;;;;;8.85;2.70;;;;;;;7.67;100.00;100279.91;5030439;28;20389;-57
2023/04/12 01:16:49;;;;;;;6.50;2.60;;;;;;;7.66;100.00;100270.25;5031061;28;20037;-57
2023/04/12 01:19:30;;;;;;;7.55;2.33;;;;;;;7.66;100.00;100263.19;5023502;28;20049;-58
2023/04/12 01:22:10;;;;;;;11.30;2.65;;;;;;;7.62;100.00;100248.50;5022991;28;20094;-59
2023/04/12 01:25:09;;;;;;;7.03;2.10;;;;;;;7.66;100.00;100241.19;5035066;28;20029;-58
2023/04/12 01:27:47;;;;;;;9.43;2.60;;;;;;;7.62;100.00;100232.66;5020854;28;20040;-59
2023/04/12 01:30:15;;;;;;;5.60;2.13;;;;;;;7.58;100.00;100218.81;5024654;28;20547;-59
2023/04/12 01:32:44;;;;;;;7.50;2.50;;;;;;;7.60;100.00;100214.25;5026220;28;20116;-58
2023/04/12 01:35:11;;;;;;;6.37;2.70;;;;;;;7.61;100.00;100217.78;5036957;28;20470;-55
2023/04/12 01:37:37;;;;;;;7.47;2.40;;;;;;;7.60;100.00;100202.84;5027385;28;20029;-58
2023/04/12 01:40:05;;;;;;;5.50;2.58;;;;;;;7.61;100.00;100199.28;5029993;28;20429;-58
2023/04/12 01:42:31;;;;;;;8.65;2.65;;;;;;;7.58;100.00;100194.22;5028752;28;20078;-56
2023/04/12 01:44:57;;;;;;;9.10;2.67;;;;;;;7.59;100.00;100183.53;5029508;28;20037;-58
2023/04/12 01:47:22;;;;;;;10.63;2.88;;;;;;;7.59;100.00;100180.03;5034245;28;20394;-58
2023/04/12 01:50:15;;;;;;;5.25;2.60;;;;;;;7.61;100.00;100180.78;5034148;28;20022;-58
2023/04/12 01:52:48;;;;;;;8.63;2.50;;;;;;;7.58;100.00;100176.53;5027906;28;20064;-59
2023/04/12 01:55:14;;;;;;;8.20;2.80;;;;;;;7.57;100.00;100168.72;5032328;28;20031;-58
2023/04/12 01:57:43;;;;;;;6.78;2.53;;;;;;;7.58;100.00;100157.22;5031771;28;20100;-59
2023/04/12 02:00:10;;;;;;;7.68;2.38;;;;;;;7.57;100.00;100150.22;5031154;28;20033;-57
2023/04/12 02:02:36;;;;;;;6.85;2.28;;;;;;;7.58;100.00;100133.44;5019098;28;20045;-59
2023/04/12 02:05:03;;;;;;;7.43;2.58;;;;;;;7.57;100.00;100129.91;5033372;28;20433;-58
2023/04/12 02:07:29;;;;;;;5.65;2.35;;;;;;;7.56;100.00;100130.91;5034525;28;20030;-59
2023/04/12 02:09:55;;;;;;;6.88;2.47;;;;;;;7.58;100.00;100131.63;5031286;28;20145;-59
2023/04/12 02:12:22;;;;;;;5.70;2.13;;;;;;;7.56;100.00;100122.09;5039656;28;20159;-59
2023/04/12 02:14:50;;;;;;;6.32;2.45;;;;;;;7.58;100.00;100101.72;5041590;28;20493;-60
2023/04/12 02:17:16;;;;;;;5.63;2.20;;;;;;;7.56;100.00;100103.59;5024034;28;20398;-59
2023/04/12 02:19:41;;;;;;;4.05;2.00;;;;;;;7.55;100.00;100089.56;5032831;28;20022;-60
2023/04/12 02:22:07;;;;;;;10.90;2.47;;;;;;;7.54;100.00;100082.63;5032637;28;20467;-60
2023/04/12 02:24:32;;;;;;;5.63;2.15;;;;;;;7.55;100.00;100076.34;5022476;28;20042;-60
2023/04/12 02:26:58;;;;;;;3.58;2.00;;;;;;;7.53;100.00;100074.81;5029547;28;20026;-59
2023/04/12 02:29:23;;;;;;;5.22;2.03;;;;;;;7.53;100.00;100072.16;5031848;28;20602;-59
2023/04/12 02:31:48;;;;;;;4.28;2.05;;;;;;;7.53;100.00;100069.50;5030034;28;20041;-59
2023/04/12 02:34:14;;;;;;;3.90;2.00;;;;;;;7.52;100.00;100058.09;5047333;28;20032;-60
2023/04/12 02:36:40;;;;;;;6.53;2.28;;;;;;;7.53;100.00;100040.44;5028907;28;20036;-60
2023/04/12 02:39:06;;;;;;;5.85;2.30;;;;;;;7.52;100.00;100028.19;5034869;28;20459;-60
2023/04/12 02:41:31;;;;;;;6.38;2.28;;;;;;;7.52;100.00;100036.09;5028370;28;20453;-60
2023/04/12 02:43:57;;;;;;;5.75;2.15;;;;;;;7.49;100.00;100023.13;5034805;28;20040;-60
2023/04/12 02:46:25;;;;;;;7.57;2.20;;;;;;;7.49;100.00;100023.13;5035046;28;20437;-59
2023/04/12 02:48:51;;;;;;;5.18;1.88;;;;;;;7.49;100.00;100023.13;5024553;28;20080;-60
2023/04/12 02:51:16;;;;;;;4.88;2.13;;;;;;;7.49;100.00;100009.91;5034111;28;20470;-60
2023/04/12 02:53:42;;;;;;;7.50;2.22;;;;;;;7.50;100.00;100001.03;5021387;28;20046;-56
2023/04/12 02:56:08;;;;;;;4.22;2.28;;;;;;;7.51;100.00;99993.00;5028343;28;20030;-56
2023/04/12 02:58:34;;;;;;;4.68;1.77;;;;;;;7.49;100.00;99979.03;5029741;28;20309;-59
2023/04/12 03:01:00;;;;;;;4.50;1.95;;;;;;;7.48;100.00;99972.09;5029413;28;20037;-59
2023/04/12 03:03:27;;;;;;;4.38;1.70;;;;;;;7.49;100.00;99972.94;5034487;28;20100;-59
2023/04/12 03:05:53;;;;;;;3.67;1.60;;;;;;;7.47;100.00;99959.84;5033408;28;20029;-59
2023/04/12 03:08:20;;;;;;;5.28;2.10;;;;;;;7.47;100.00;99948.44;5030107;28;20029;-59
2023/04/12 03:10:45;;;;;;;3.80;1.77;;;;;;;7.48;100.00;99947.47;5021301;28;20056;-58
2023/04/12 03:13:11;;;;;;;6.00;1.90;;;;;;;7.48;100.00;99935.09;5034721;28;20377;-58
2023/04/12 03:15:36;;;;;;;5.20;1.98;;;;;;;7.47;100.00;99941.34;5029558;28;20042;-57
2023/04/12 03:18:02;;;;;;;3.95;1.75;;;;;;;7.46;100.00;99942.31;5034596;28;20021;-58
2023/04/12 03:20:27;;;;;;;6.55;1.95;;;;;;;7.46;100.00;99937.03;5034097;28;20030;-59
2023/04/12 03:22:53;;;;;;;3.28;1.80;;;;;;;7.44;100.00;99931.00;5034662;28;20021;-60
2023/04/12 03:25:18;;;;;;;4.25;1.98;;;;;;;7.43;100.00;99931.13;5020494;28;20044;-60
2023/04/12 03:27:44;;;;;;;5.03;1.83;;;;;;;7.43;100.00;99928.47;5034389;28;20030;-61
2023/04/12 03:30:10;;;;;;;4.75;2.03;;;;;;;7.41;100.00;99928.59;5031290;28;20038;-61
2023/04/12 03:32:38;;;;;;;3.53;1.63;;;;;;;7.41;100.00;99918.03;5034500;28;20128;-60
2023/04/12 03:35:03;;;;;;;5.00;1.73;;;;;;;7.39;100.00;99912.03;5032562;28;20021;-61
2023/04/12 03:37:29;;;;;;;6.72;2.10;;;;;;;7.38;100.00;99915.66;5022298;28;20090;-62
2023/04/12 03:39:54;;;;;;;3.00;1.65;;;;;;;7.37;100.00;99903.41;5022744;28;20045;-62
2023/04/12 03:42:19;;;;;;;6.03;1.70;;;;;;;7.38;100.00;99905.09;5034121;28;20052;-62
2023/04/12 03:44:45;;;;;;;6.40;2.03;;;;;;;7.37;100.00;99900.75;5031616;28;20073;-63
2023/04/12 03:47:10;;;;;;;3.38;1.52;;;;;;;7.35;100.00;99895.59;5033828;28;20386;-62
2023/04/12 03:49:37;;;;;;;4.75;1.98;;;;;;;7.37;100.00;99884.91;5031561;28;20390;-62
2023/04/12 03:52:04;;;;;;;4.88;1.80;;;;;;;7.37;100.00;99879.63;5034319;28;20025;-62
2023/04/12 03:54:29;;;;;;;3.08;1.73;;;;;;;7.38;100.00;99874.22;5065718;28;20499;-63
2023/04/12 03:56:55;;;;;;;3.83;1.60;;;;;;;7.40;100.00;99874.94;5033856;28;20032;-64
2023/04/12 03:59:20;;;;;;;3.20;1.60;;;;;;;7.37;100.00;99864.59;5019696;28;20033;-64
2023/04/12 04:01:46;;;;;;;2.65;1.80;;;;;;;7.36;100.00;99857.66;5033757;28;20025;-65
2023/04/12 04:04:11;;;;;;;2.85;1.52;;;;;;;7.36;100.00;99855.00;5026039;28;20446;-63
2023/04/12 04:06:37;;;;;;;3.55;1.52;;;;;;;7.35;100.00;99848.03;5033716;28;20057;-63
2023/04/12 04:09:03;;;;;;;4.45;1.95;;;;;;;7.33;100.00;99849.13;5033452;28;20157;-63
2023/04/12 04:11:28;;;;;;;11.85;2.25;;;;;;;7.32;100.00;99847.44;5032683;28;20048;-64
2023/04/12 04:13:53;;;;;;;3.17;1.80;;;;;;;7.32;100.00;99834.25;5027294;28;20087;-63
2023/04/12 04:16:19;;;;;;;3.30;1.70;;;;;;;7.32;100.00;99842.16;5033409;28;20390;-63
2023/04/12 04:18:44;;;;;;;4.18;1.70;;;;;;;7.32;100.00;99828.97;5028491;28;20025;-63
2023/04/12 04:21:10;;;;;;;5.18;1.83;;;;;;;7.30;100.00;99828.25;5033160;28;20021;-64
2023/04/12 04:23:38;;;;;;;2.38;1.65;;;;;;;7.31;100.00;99827.25;5033199;28;20036;-63
2023/04/12 04:26:09;;;;;;;3.38;1.67;;;;;;;7.32;100.00;99823.69;5029934;28;20072;-63
2023/04/12 04:28:36;;;;;;;3.53;1.55;;;;;;;7.32;100.00;99818.38;5027684;28;20044;-63
2023/04/12 04:31:05;;;;;;;2.38;1.70;;;;;;;7.29;100.00;99808.91;5032965;28;20083;-62
2023/04/12 04:33:33;;;;;;;3.63;1.98;;;;;;;7.31;100.00;99814.06;5030596;28;20033;-63
2023/04/12 04:35:58;;;;;;;3.38;1.80;;;;;;;7.30;100.00;99807.13;5033096;28;20030;-60
2023/04/12 04:38:27;;;;;;;4.00;1.75;;;;;;;7.32;100.00;99799.91;5027513;28;20021;-62
2023/04/12 04:40:52;;;;;;;2.37;1.87;;;;;;;7.32;100.00;99802.53;5032957;28;20061;-62
2023/04/12 04:43:19;;;;;;;3.40;1.90;;;;;;;7.33;100.00;99798.94;5030714;28;20060;-62
2023/04/12 04:45:47;;;;;;;4.47;1.58;;;;;;;7.30;100.00;99794.75;5021740;28;20028;-60
2023/04/12 04:48:12;;;;;;;3.03;1.80;;;;;;;7.31;100.00;99795.56;5019159;28;20497;-62
2023/04/12 04:50:38;;;;;;;4.15;1.85;;;;;;;7.30;100.00;99794.75;5027936;28;20108;-61
2023/04/12 04:53:03;;;;;;;2.70;2.08;;;;;;;7.32;100.00;99794.63;5028005;28;20026;-61
2023/04/12 04:55:29;;;;;;;3.42;1.95;;;;;;;7.31;100.00;99796.44;5031830;28;20275;-62
2023/04/12 04:57:56;;;;;;;1.73;1.58;;;;;;;7.32;100.00;99787.53;5028171;28;20466;-62
2023/04/12 05:00:24;;;;;;;2.80;1.67;;;;;;;7.32;100.00;99790.16;5027423;28;20025;-62
2023/04/12 05:02:50;;;;;;;4.25;1.92;;;;;;;7.34;100.00;99787.41;5028936;28;20052;-59
2023/04/12 05:05:16;;;;;;;3.05;1.70;;;;;;;7.33;100.00;99785.75;5032144;28;20033;-60
2023/04/12 05:07:44;;;;;;;4.20;2.17;;;;;;;7.33;100.00;99783.94;5032155;28;21000;-60
2023/04/12 05:10:10;;;;;;;2.45;1.45;;;;;;;7.36;100.00;99788.13;5025588;28;20124;-59
2023/04/12 05:12:36;;;;;;;1.90;1.70;;;;;;;7.37;100.00;99792.44;5030759;28;20104;-60
2023/04/12 05:15:02;;;;;;;4.30;1.95;;;;;;;7.38;100.00;99789.69;5023118;28;20030;-59
2023/04/12 05:17:28;;;;;;;3.70;2.00;;;;;;;7.41;100.00;99783.31;5032332;28;20029;-60
2023/04/12 05:19:54;;;;;;;2.97;1.90;;;;;;;7.43;100.00;99769.97;5024033;28;20025;-58
2023/04/12 05:22:20;;;;;;;3.13;1.67;;;;;;;7.43;100.00;99767.31;5032186;28;20049;-59
2023/04/12 05:24:47;;;;;;;7.47;2.08;;;;;;;7.45;100.00;99776.00;5024073;28;20030;-59
2023/04/12 05:27:12;;;;;;;5.40;2.00;;;;;;;7.45;100.00;99789.19;5029380;28;20029;-60
2023/04/12 05:29:38;;;;;;;2.47;2.05;;;;;;;7.46;100.00;99775.00;5031977;28;20078;-59
2023/04/12 05:32:03;;;;;;;4.47;2.10;;;;;;;7.47;100.00;99771.41;5025056;28;20044;-58
2023/04/12 05:34:29;;;;;;;4.05;2.20;;;;;;;7.48;100.00;99767.81;5031955;28;20022;-59
2023/04/12 05:36:55;;;;;;;3.13;1.83;;;;;;;7.47;100.00;99766.97;5021988;28;20032;-59
2023/04/12 05:39:21;;;;;;;4.55;2.28;;;;;;;7.48;100.00;99765.19;5032028;28;20355;-59
2023/04/12 05:41:46;;;;;;;2.30;2.00;;;;;;;7.49;100.00;99762.38;5024454;28;20082;-59
2023/04/12 05:44:11;;;;;;;3.75;2.08;;;;;;;7.50;100.00;99752.69;5022536;28;20029;-59
2023/04/12 05:46:36;;;;;;;3.33;1.88;;;;;;;7.51;100.00;99763.13;5027790;28;20114;-60
2023/04/12 05:49:02;;;;;;;2.97;2.10;;;;;;;7.53;100.00;99763.00;5063696;28;20025;-59
2023/04/12 05:51:27;;;;;;;3.75;2.20;;;;;;;7.52;100.00;99767.44;5023983;28;20038;-58
2023/04/12 05:53:52;;;;;;;3.65;1.92;;;;;;;7.53;100.00;99752.44;5031739;28;20025;-59
2023/04/12 05:56:18;;;;;;;2.45;2.08;;;;;;;7.52;100.00;99756.84;5030826;28;20029;-62
2023/04/12 05:58:43;;;;;;;3.60;2.10;;;;;;;7.53;100.00;99755.91;5024443;28;20034;-61
2023/04/12 06:01:09;;;;;;;4.32;2.00;;;;;;;7.55;100.00;99759.25;5019951;28;20029;-62
2023/04/12 06:03:34;;;;;;;3.53;2.10;;;;;;;7.56;100.00;99758.31;5020391;28;20483;-62
2023/04/12 06:06:01;;;;;;;5.15;2.35;;;;;;;7.59;100.00;99750.13;5017838;28;20037;-61
2023/04/12 06:08:28;;;;;;;5.57;2.20;;;;;;;7.60;100.00;99754.44;5019907;28;20101;-60
2023/04/12 06:10:53;;;;;;;3.30;2.67;;;;;;;7.60;100.00;99754.44;5027474;28;20051;-60
2023/04/12 06:13:18;;;;;;;3.35;2.70;;;;;;;7.63;100.00;99752.50;5030559;28;20033;-59
2023/04/12 06:15:44;;;;;;;3.83;2.38;;;;;;;7.64;100.00;99751.53;5027784;28;20489;-60
2023/04/12 06:18:11;;;;;;;3.60;2.65;;;;;;;7.64;100.00;99752.38;5028169;28;20053;-60
2023/04/12 06:20:39;;;;;;;4.88;2.75;;;;;;;7.66;100.00;99760.19;5029267;28;20053;-60
2023/04/12 06:23:05;;;;;;;4.03;2.60;;;;;;;7.67;100.00;99748.66;5029837;28;20554;-60
2023/04/12 06:25:30;;;;;;;5.10;2.67;;;;;;;7.69;100.00;99749.34;5022565;28;20037;-60
2023/04/12 06:27:55;;;;;;;5.05;2.80;;;;;;;7.70;100.00;99741.31;5033445;28;20056;-60
2023/04/12 06:30:21;;;;;;;3.83;2.42;;;;;;;7.72;100.00;99743.81;5020643;28;20036;-60
2023/04/12 06:32:46;;;;;;;4.65;2.50;;;;;;;7.74;100.00;99741.88;5022265;28;20037;-60
2023/04/12 06:35:11;;;;;;;2.78;2.50;;;;;;;7.77;100.00;99745.09;5017061;28;20065;-61
2023/04/12 06:37:37;;;;;;;5.20;2.63;;;;;;;7.77;100.00;99742.47;5024465;28;20077;-61
2023/04/12 06:40:02;;;;;;;3.15;2.47;;;;;;;7.77;100.00;99734.53;5022611;28;20029;-61
2023/04/12 06:42:27;;;;;;;3.60;2.85;;;;;;;7.77;100.00;99737.19;5026569;28;20116;-61
2023/04/12 06:44:53;;;;;;;3.03;2.83;;;;;;;7.80;100.00;99741.38;5027454;28;20544;-61
2023/04/12 06:47:18;;;;;;;4.07;2.75;;;;;;;7.83;100.00;99748.22;5025755;28;20038;-62
2023/04/12 06:49:43;;;;;;;3.00;2.70;;;;;;;7.84;100.00;99755.19;5028470;28;20470;-62
2023/04/12 06:52:08;;;;;;;3.42;2.88;;;;;;;7.87;100.00;99754.94;5025247;28;20044;-62
2023/04/12 06:54:38;;;;;;;3.80;2.78;;;;;;;7.90;100.00;99742.28;5029837;28;20116;-61
2023/04/12 06:57:07;;;;;;;;;;;;;;;7.96;100.00;99741.78;5019875;28;20368;-63
2023/04/12 06:59:32;;;;;;;2.70;2.50;;;;;;;7.96;100.00;99747.09;5026992;28;20071;-62
2023/04/12 07:01:57;;;;;;;6.18;3.17;;;;;;;8.00;100.00;99749.47;5029467;28;20124;-62
2023/04/12 07:04:23;;;;;;;3.75;2.88;;;;;;;8.03;100.00;99744.78;5022615;28;20029;-62
2023/04/12 07:06:48;;;;;;;3.45;2.78;;;;;;;8.05;100.00;99748.13;5025418;28;20092;-62
2023/04/12 07:09:13;;;;;;;3.20;2.90;;;;;;;8.06;100.00;99739.22;5029239;28;20029;-62
2023/04/12 07:11:39;;;;;;;6.20;2.78;;;;;;;8.10;100.00;99748.56;5028299;28;20045;-63
2023/04/12 07:14:04;;;;;;;5.00;3.08;;;;;;;8.12;100.00;99746.63;5017304;28;20033;-62
2023/04/12 07:16:32;;;;;;;3.30;2.72;;;;;;;8.14;100.00;99743.84;5022380;28;20033;-63
2023/04/12 07:18:58;;;;;;;6.03;3.03;;;;;;;8.19;100.00;99748.75;5031811;28;20095;-61
2023/04/12 07:21:24;;;;;;;8.65;3.72;;;;;;;8.21;100.00;99738.88;5019308;28;20502;-62
2023/04/12 07:23:50;;;;;;;4.15;3.05;;;;;;;8.24;100.00;99741.28;5021760;28;20398;-61
2023/04/12 07:26:16;;;;;;;5.72;3.53;;;;;;;8.27;100.00;99741.03;5021188;28;20048;-61
2023/04/12 07:28:41;;;;;;;5.38;3.20;;;;;;;8.30;100.00;99748.69;5026416;28;20041;-62
2023/04/12 07:31:07;;;;;;;5.13;3.13;;;;;;;8.31;100.00;99743.28;5014145;28;20037;-62
2023/04/12 07:33:34;;;;;;;9.23;2.85;;;;;;;8.35;100.00;99746.50;5026036;28;20042;-64
2023/04/12 07:36:00;;;;;;;6.72;3.22;;;;;;;8.36;100.00;99739.38;5017074;28;20049;-62
2023/04/12 07:38:25;;;;;;;9.05;3.72;;;;;;;8.39;100.00;99729.38;5029656;28;20041;-63
2023/04/12 07:40:50;;;;;;;11.00;3.58;;;;;;;8.43;100.00;99728.19;5034848;28;20028;-63
2023/04/12 07:43:16;;;;;;;7.60;3.78;;;;;;;8.45;100.00;99734.19;5045862;28;20048;-63
2023/04/12 07:45:41;;;;;;;7.47;3.63;;;;;;;8.49;100.00;99729.47;5040861;28;20474;-63
2023/04/12 07:48:07;;;;;;;7.60;3.75;;;;;;;8.54;100.00;99719.31;5026483;28;20037;-64
2023/04/12 07:50:32;;;;;;;6.03;3.20;;;;;;;8.58;100.00;99723.41;5036073;28;20033;-64
2023/04/12 07:53:20;;;;;;;5.82;3.42;;;;;;;8.63;100.00;99726.47;5038079;28;20132;-64
2023/04/12 07:55:46;;;;;;;8.27;3.60;;;;;;;8.65;100.00;99729.81;5031779;28;20503;-65
2023/04/12 07:58:11;;;;;;;9.95;4.20;;;;;;;8.67;100.00;99732.34;5028938;28;20124;-64
2023/04/12 08:00:36;;;;;;;9.38;4.20;;;;;;;8.69;100.00;99731.25;5018968;28;20121;-64
2023/04/12 08:03:02;;;;;;;7.78;3.80;;;;;;;8.71;100.00;99733.78;5032703;28;20053;-64
2023/04/12 08:05:27;;;;;;;7.40;3.50;;;;;;;8.68;100.00;99726.91;5032981;28;20171;-64
2023/04/12 08:07:52;;;;;;;7.68;4.20;;;;;;;8.72;100.00;99731.94;5032087;28;20038;-65
2023/04/12 08:10:17;;;;;;;7.95;3.83;;;;;;;8.77;100.00;99732.38;5033559;28;20045;-65
2023/04/12 08:12:43;;;;;;;10.40;4.13;;;;;;;8.82;100.00;99738.94;5020307;28;20391;-65
2023/04/12 08:15:08;;;;;;;11.02;4.25;;;;;;;8.86;100.00;99744.84;5019390;28;20044;-65
2023/04/12 08:17:34;;;;;;;6.80;4.22;;;;;;;8.89;100.00;99752.50;5026035;28;20072;-66
2023/04/12 08:19:59;;;;;;;6.65;4.53;;;;;;;8.92;100.00;99749.59;5024053;28;20026;-65
2023/04/12 08:22:25;;;;;;;9.05;4.45;;;;;;;8.94;100.00;99749.44;5027098;28;20042;-66
2023/04/12 08:24:50;;;;;;;6.13;4.35;;;;;;;8.95;100.00;99741.38;5042341;28;20307;-66
2023/04/12 08:27:16;;;;;;;10.13;4.78;;;;;;;8.99;100.00;99739.28;5033829;28;20434;-66
2023/04/12 08:29:41;;;;;;;8.00;4.43;;;;;;;9.01;100.00;99740.84;5031242;28;20032;-65
2023/04/12 08:32:08;;;;;;;12.27;5.05;;;;;;;9.07;100.00;99748.22;5026622;28;20038;-66
2023/04/12 08:34:33;;;;;;;11.23;5.05;;;;;;;9.13;100.00;99743.41;5037043;28;20029;-66
2023/04/12 08:36:59;;;;;;;9.93;5.80;;;;;;;9.21;100.00;99747.03;5035105;28;20044;-65
2023/04/12 08:39:25;;;;;;;10.73;5.80;;;;;;;9.26;100.00;99734.22;5031947;28;20038;-66
2023/04/12 08:41:53;;;;;;;11.68;6.35;;;;;;;9.28;100.00;99723.47;5037297;28;20032;-66
2023/04/12 08:44:20;;;;;;;12.45;6.80;;;;;;;9.35;100.00;99729.91;5028981;28;20033;-65
2023/04/12 08:46:46;;;;;;;14.82;7.07;;;;;;;9.52;100.00;99728.38;5019327;28;20025;-66
2023/04/12 08:49:11;;;;;;;13.05;7.10;;;;;;;9.67;100.00;99725.31;5013750;28;20038;-66
2023/04/12 08:51:37;;;;;;;15.52;7.13;;;;;;;9.87;100.00;99728.81;5015932;28;20026;-66
2023/04/12 08:54:03;;;;;;;12.35;7.50;;;;;;;10.03;100.00;99731.72;5018527;28;20030;-66
2023/04/12 08:56:30;;;;;;;14.27;6.45;;;;;;;10.15;100.00;99735.91;5014187;28;20447;-65
2023/04/12 08:58:56;;;;;;;12.32;7.60;;;;;;;10.25;100.00;99735.88;5018302;28;20458;-66
2023/04/12 09:01:21;;;;;;;16.30;6.55;;;;;;;10.34;100.00;99735.06;5018530;28;20444;-65
2023/04/12 09:03:47;;;;;;;17.38;6.78;;;;;;;10.36;100.00;99725.13;5019347;28;20068;-65
2023/04/12 09:06:12;;;;;;;13.68;6.53;;;;;;;10.44;100.00;99719.13;5026044;28;20034;-66
2023/04/12 09:08:52;;;;;;;15.35;6.65;;;;;;;10.53;100.00;99720.88;5023755;28;20483;-66
2023/04/12 09:11:25;;;;;;;11.13;5.95;;;;;;;10.57;100.00;99723.25;5057987;28;20045;-66
2023/04/12 09:13:52;;;;;;;14.75;6.22;;;;;;;10.58;100.00;99715.16;5018046;28;20109;-66
2023/04/12 09:16:32;;;;;;;14.45;5.93;;;;;;;10.62;100.00;99713.88;5025160;28;20444;-65
2023/04/12 09:19:01;;;;;;;13.82;6.45;;;;;;;10.67;100.00;99714.25;5022269;28;20554;-65
2023/04/12 09:21:27;;;;;;;15.35;6.32;;;;;;;10.87;100.00;99707.03;5017690;28;20372;-65
2023/04/12 09:24:04;;;;;;;22.02;9.70;;;;;;;11.14;100.00;99710.69;5024150;28;20048;-65
2023/04/12 09:26:30;;;;;;;15.25;6.90;;;;;;;11.58;100.00;99700.16;5009002;28;20080;-65
2023/04/12 09:28:55;;;;;;;25.60;7.72;;;;;;;11.79;100.00;99704.31;5029491;28;20033;-65
2023/04/12 09:31:21;;;;;;;19.73;7.57;;;;;;;12.04;100.00;99702.75;5052914;28;20032;-65
2023/04/12 09:33:46;;;;;;;21.83;7.20;;;;;;;12.08;95.75;99709.41;5030952;28;20040;-65
2023/04/12 09:36:16;;;;;;;20.27;6.32;;;;;;;12.12;95.17;99701.94;5031208;28;20021;-65
2023/04/12 09:38:58;;;;;;;18.50;5.72;;;;;;;12.07;96.04;99706.91;5025161;28;20037;-65
2023/04/12 09:41:26;;;;;;;14.95;5.70;;;;;;;12.13;93.65;99708.97;5031039;28;20033;-65
2023/04/12 09:43:52;;;;;;;18.00;5.57;;;;;;;12.11;91.52;99705.63;5022761;28;20084;-65
2023/04/12 09:46:17;;;;;;;25.30;6.07;;;;;;;12.07;87.66;99706.91;5022594;28;20383;-65
2023/04/12 09:48:50;;;;;;;20.95;5.63;;;;;;;12.06;88.82;99700.75;5030582;28;20079;-65
2023/04/12 09:51:33;;;;;;;15.32;4.75;;;;;;;12.13;89.62;99703.63;5031143;28;20048;-65
2023/04/12 09:53:59;;;;;;;22.10;5.00;;;;;;;12.07;84.50;99697.09;5030756;28;20112;-65
2023/04/12 09:56:27;;;;;;;18.27;5.00;;;;;;;12.05;84.21;99696.41;5027538;28;20024;-65
2023/04/12 09:58:54;;;;;;;21.60;5.55;;;;;;;12.05;84.58;99698.25;5030890;28;20053;-64
2023/04/12 10:01:22;;;;;;;20.42;5.40;;;;;;;11.95;84.34;99704.50;5027446;28;20030;-64
2023/04/12 10:03:47;;;;;;;19.88;5.05;;;;;;;11.96;83.64;99689.38;5030716;28;20029;-62
2023/04/12 10:06:13;;;;;;;21.88;5.30;;;;;;;11.90;83.98;99682.81;5029439;28;20029;-64
2023/04/12 10:08:39;;;;;;;16.10;4.50;;;;;;;11.90;82.77;99695.28;5022836;28;20072;-60
2023/04/12 10:11:05;;;;;;;16.90;4.32;;;;;;;11.87;82.72;99706.22;5025718;28;20069;-63
2023/04/12 10:13:35;;;;;;;16.63;4.35;;;;;;;11.83;83.32;99713.69;5031313;28;20041;-63
2023/04/12 10:16:04;;;;;;;16.15;4.82;;;;;;;11.77;83.13;99714.28;5030653;28;20017;-63
2023/04/12 10:18:30;;;;;;;16.70;4.60;;;;;;;11.71;83.91;99715.75;5023160;28;20057;-63
2023/04/12 10:20:58;;;;;;;22.42;4.65;;;;;;;11.71;82.72;99713.09;5031190;28;20066;-63
2023/04/12 10:23:24;;;;;;;19.25;4.75;;;;;;;11.70;83.09;99708.75;5026838;28;20029;-63
2023/04/12 10:25:52;;;;;;;20.80;5.18;;;;;;;11.61;81.14;99712.34;5029714;28;20112;-64
2023/04/12 10:28:20;;;;;;;14.75;4.55;;;;;;;11.60;82.42;99705.34;5021532;28;20026;-63
2023/04/12 10:30:50;;;;;;;15.88;3.92;;;;;;;11.54;79.34;99712.09;5029313;28;20037;-63
2023/04/12 10:33:18;;;;;;;20.05;4.38;;;;;;;11.49;77.39;99709.06;5029440;28;20080;-64
2023/04/12 10:35:55;;;;;;;14.85;4.15;;;;;;;11.45;79.76;99710.34;5021017;28;20021;-63
2023/04/12 10:38:25;;;;;;;17.27;4.15;;;;;;;11.38;76.05;99723.41;5029269;28;20060;-63
2023/04/12 10:41:05;;;;;;;23.13;3.90;;;;;;;11.35;77.33;99723.69;5027394;28;20057;-62
2023/04/12 10:43:30;;;;;;;13.00;3.70;;;;;;;11.19;75.17;99727.03;5027022;28;20042;-63
2023/04/12 10:45:57;;;;;;;16.23;3.67;;;;;;;11.09;78.86;99723.56;5021527;28;20033;-63
2023/04/12 10:48:55;;;;;;;20.02;4.20;;;;;;;11.07;82.80;99726.41;5031072;28;20165;-63
2023/04/12 10:51:24;;;;;;;16.25;3.90;;;;;;;11.05;83.77;99722.22;5030200;28;20457;-64
2023/04/12 10:54:15;;;;;;;14.50;4.15;;;;;;;10.99;84.81;99718.34;5033240;28;20071;-62
2023/04/12 10:56:44;;;;;;;16.88;4.63;;;;;;;10.90;85.98;99720.03;5020264;28;20052;-64
2023/04/12 10:59:11;;;;;;;17.35;4.78;;;;;;;10.92;87.46;99722.53;5034955;28;20026;-64
2023/04/12 11:01:37;;;;;;;21.13;4.95;;;;;;;10.87;87.61;99730.94;5032129;28;20053;-63
2023/04/12 11:04:19;;;;;;;25.15;5.43;;;;;;;10.87;87.61;99732.78;5034889;28;20040;-64
2023/04/12 11:06:51;;;;;;;19.35;5.45;;;;;;;10.83;90.27;99726.09;5023598;28;20385;-64
2023/04/12 11:09:20;;;;;;;15.95;5.32;;;;;;;10.79;90.15;99733.53;5032657;28;20375;-64
2023/04/12 11:11:45;;;;;;;22.83;5.40;;;;;;;10.83;91.88;99734.06;5035280;28;20048;-63
2023/04/12 11:14:13;;;;;;;20.38;5.90;;;;;;;10.78;91.70;99731.03;5031797;28;20022;-64
2023/04/12 11:17:16;;;;;;;17.67;5.63;;;;;;;10.82;91.51;99745.66;5034569;28;20112;-64
2023/04/12 11:19:54;;;;;;;18.55;5.25;;;;;;;10.73;92.32;99748.22;5034403;28;20474;-64
2023/04/12 11:22:21;;;;;;;24.05;6.15;;;;;;;10.70;92.44;99737.06;5031837;28;20581;-64
2023/04/12 11:24:49;;;;;;;23.70;5.70;;;;;;;10.65;93.44;99732.16;5034694;28;20037;-64
2023/04/12 11:27:15;;;;;;;17.30;5.53;;;;;;;10.67;92.39;99724.06;5031828;28;20021;-64
2023/04/12 11:29:42;;;;;;;17.38;5.15;;;;;;;10.71;92.99;99726.28;5034065;28;20021;-64
2023/04/12 11:32:13;;;;;;;20.33;5.28;;;;;;;10.73;90.77;99721.66;5033111;28;20056;-64